Au Sable, Michigan
Current Conditions -  °F | °C
As of 8:13 AM on Saturday 01 Nov 2014 (Local Time) from KOSC Reporting Station
Overcast Overcast  
Wind Chill: 22°   Ceiling: 3400
Heat Index: 31°   Visibility: 10mi
Dew Point: 22°   Wind: 12mph
Humidity: 68%   Direction: 330°NNW
Pressure: 30.36"   Gusts: 18mph
Location:  44.4539°N, 83.4813°W
Report Text: KOSC 011213Z AUTO 33010G16KT 10SM OVC034 00/M06 A3036 RMK AO2 T10061058
Loading
Personal Weather Stations






























Interactive Weather Map
Tropical Storm Tracking
New forecast layout! Learn more

10-Day Weather Forecast

Advertisements
Track Severe Weather on mobile